Terminal Aerodrome Forecast
Issued by NWS Wichita, KS

Home | Current Version | Previous Version | Graphics & Text | Print | Product List | Glossary On
Versions: 1 2 3 4 5 6 7 8 9 10 11 12 13 14 15
000
FTUS43 KICT 301700
TAFICT
TAF
KICT 301730Z 3018/0118 18017G24KT P6SM SCT080
     FM010100 16011KT P6SM SCT080
     FM010300 16011KT P6SM VCTS BKN060CB
     FM011000 17013KT P6SM VCSH BKN060
     FM011600 18015G22KT P6SM SCT060=

USA.gov is the U.S. government's official web portal to all federal, state and local government web resources and services.